Time;durP1;ratioP1;P1;durP2;ratioP2;P2;SDS_P1;SDS_P2;PMS_P1;PMS_P2;Temp;Humidity;BMP_temperature;BMP_pressure;BME280_temperature;BME280_humidity;BME280_pressure;Samples;Min_cycle;Max_cycle;Signal;HPM_P1;HPM_P2
2021/05/27 00:00:26;;;;;;;15.80;8.38;;;11.30;91.80;;;;;;5092570;28;20503;-73
2021/05/27 00:02:53;;;;;;;13.15;8.00;;;11.30;91.60;;;;;;5093359;28;20053;-72
2021/05/27 00:05:21;;;;;;;11.23;6.88;;;11.30;91.60;;;;;;5102281;28;20063;-73
2021/05/27 00:07:49;;;;;;;14.05;6.90;;;11.30;91.70;;;;;;5095163;28;20036;-73
2021/05/27 00:10:19;;;;;;;16.27;7.45;;;11.30;91.70;;;;;;5114833;28;20032;-73
2021/05/27 00:12:47;;;;;;;13.23;7.18;;;11.30;91.70;;;;;;5101625;28;20126;-73
2021/05/27 00:15:15;;;;;;;11.63;6.95;;;11.20;91.70;;;;;;5079509;28;20074;-73
2021/05/27 00:17:42;;;;;;;11.43;5.97;;;11.10;91.70;;;;;;5066895;28;20032;-74
2021/05/27 00:20:11;;;;;;;13.35;6.85;;;11.10;91.80;;;;;;5107717;28;20039;-73
2021/05/27 00:22:38;;;;;;;11.80;6.80;;;11.10;91.90;;;;;;5078086;28;20054;-73
2021/05/27 00:25:10;;;;;;;12.88;6.28;;;11.00;91.90;;;;;;5091269;28;20086;-73
2021/05/27 00:27:40;;;;;;;8.90;5.82;;;10.90;91.90;;;;;;5105036;27;20481;-74
2021/05/27 00:30:09;;;;;;;10.27;6.10;;;10.90;92.10;;;;;;5075700;28;20407;-73
2021/05/27 00:32:36;;;;;;;9.27;5.50;;;10.90;92.10;;;;;;5109792;28;20089;-73
2021/05/27 00:35:04;;;;;;;13.38;6.45;;;10.80;92.20;;;;;;5090924;28;20435;-73
2021/05/27 00:37:32;;;;;;;15.20;6.25;;;10.80;92.10;;;;;;5109419;28;20039;-73
2021/05/27 00:40:00;;;;;;;10.63;5.80;;;10.80;92.20;;;;;;5105085;28;20031;-74
2021/05/27 00:42:27;;;;;;;9.15;5.55;;;10.80;92.30;;;;;;5106461;28;20047;-74
2021/05/27 00:45:03;;;;;;;11.57;5.20;;;10.70;92.50;;;;;;5089460;28;20036;-73
2021/05/27 00:47:29;;;;;;;10.43;4.63;;;10.80;92.30;;;;;;5103601;28;20043;-74
2021/05/27 00:49:57;;;;;;;14.95;6.00;;;10.80;92.30;;;;;;5053325;28;20051;-74
2021/05/27 00:52:24;;;;;;;13.38;6.82;;;10.70;92.30;;;;;;5109590;28;20531;-73
2021/05/27 00:54:53;;;;;;;11.48;6.00;;;10.70;92.30;;;;;;5090207;28;20040;-73
2021/05/27 00:57:31;;;;;;;13.13;5.53;;;10.70;92.40;;;;;;5107689;28;20036;-73
2021/05/27 00:59:59;;;;;;;10.65;5.93;;;10.70;92.40;;;;;;5099054;28;20039;-73
2021/05/27 01:02:26;;;;;;;9.55;5.70;;;10.70;92.40;;;;;;5092771;28;20043;-74
2021/05/27 01:04:54;;;;;;;11.98;6.20;;;10.70;92.50;;;;;;5109625;28;20031;-73
2021/05/27 01:07:23;;;;;;;19.42;7.65;;;10.70;92.50;;;;;;5089174;28;20102;-73
2021/05/27 01:09:51;;;;;;;12.40;6.07;;;10.60;92.50;;;;;;5094393;28;20069;-74
2021/05/27 01:12:18;;;;;;;14.18;6.68;;;10.60;92.60;;;;;;5096979;28;20498;-74
2021/05/27 01:17:36;;;;;;;9.65;5.47;;;10.50;92.70;;;;;;5096248;28;20040;-74
2021/05/27 01:20:09;;;;;;;10.38;4.88;;;10.60;92.70;;;;;;5079376;28;20119;-75
2021/05/27 01:22:37;;;;;;;13.77;6.53;;;10.50;92.80;;;;;;5070227;28;20040;-75
2021/05/27 01:25:07;;;;;;;13.02;5.55;;;10.50;92.90;;;;;;5109832;28;20040;-76
2021/05/27 01:27:35;;;;;;;11.02;5.88;;;10.50;92.90;;;;;;5096806;28;20056;-77
2021/05/27 01:30:06;;;;;;;11.25;5.88;;;10.40;92.90;;;;;;5095556;28;20482;-77
2021/05/27 01:32:36;;;;;;;13.75;5.80;;;10.50;93.00;;;;;;5097103;28;20077;-78
2021/05/27 01:35:06;;;;;;;12.45;5.68;;;10.40;93.00;;;;;;5080097;28;20104;-78
2021/05/27 01:37:36;;;;;;;13.20;5.68;;;10.40;93.00;;;;;;5095409;28;20040;-77
2021/05/27 01:40:05;;;;;;;11.10;5.43;;;10.30;93.10;;;;;;5080465;28;20040;-76
2021/05/27 01:42:32;;;;;;;10.30;5.72;;;10.30;93.10;;;;;;5115065;28;20042;-76
2021/05/27 01:44:59;;;;;;;9.18;5.68;;;10.30;93.20;;;;;;5079751;28;20058;-77
2021/05/27 01:47:26;;;;;;;12.63;5.80;;;10.20;93.20;;;;;;5072418;28;20047;-78
2021/05/27 01:49:53;;;;;;;12.43;5.88;;;10.20;93.20;;;;;;5076759;28;20453;-78
2021/05/27 01:52:21;;;;;;;12.48;5.63;;;10.20;93.30;;;;;;5086393;28;20445;-78
2021/05/27 01:54:48;;;;;;;11.30;5.20;;;10.20;93.30;;;;;;5080004;28;20044;-77
2021/05/27 01:57:15;;;;;;;9.00;4.70;;;10.20;93.40;;;;;;5079780;28;20031;-77
2021/05/27 01:59:44;;;;;;;9.55;5.15;;;10.10;93.40;;;;;;5076709;28;20067;-79
2021/05/27 02:02:15;;;;;;;11.05;4.13;;;10.20;93.40;;;;;;5079919;28;20035;-79
2021/05/27 02:04:43;;;;;;;10.15;5.75;;;10.10;93.40;;;;;;5088886;28;20044;-78
2021/05/27 02:07:12;;;;;;;14.27;6.05;;;10.10;93.50;;;;;;5070565;28;20040;-78
2021/05/27 02:09:42;;;;;;;12.65;5.32;;;10.10;93.50;;;;;;5096282;28;20047;-77
2021/05/27 02:12:09;;;;;;;10.77;6.15;;;10.10;93.50;;;;;;5096172;28;20040;-78
2021/05/27 02:14:38;;;;;;;10.82;6.55;;;10.10;93.50;;;;;;5096815;28;20046;-79
2021/05/27 02:17:05;;;;;;;12.02;5.50;;;10.10;93.50;;;;;;5095979;28;20044;-79
2021/05/27 02:19:32;;;;;;;13.75;6.25;;;10.10;93.50;;;;;;5082488;28;20047;-78
2021/05/27 02:21:59;;;;;;;12.70;5.82;;;10.10;93.60;;;;;;5096206;28;20046;-79
2021/05/27 02:24:45;;;;;;;11.32;5.03;;;10.10;93.60;;;;;;5062939;28;20047;-78
2021/05/27 02:27:13;;;;;;;12.85;5.28;;;10.10;93.60;;;;;;5071994;28;20051;-78
2021/05/27 02:29:42;;;;;;;10.52;4.75;;;10.10;93.70;;;;;;5078531;28;20050;-79
2021/05/27 02:32:12;;;;;;;7.35;4.38;;;10.10;93.70;;;;;;5064209;28;20048;-78
2021/05/27 02:34:40;;;;;;;10.90;5.30;;;10.10;93.70;;;;;;5094438;28;20043;-78
2021/05/27 02:37:08;;;;;;;9.23;5.32;;;10.10;93.70;;;;;;5096354;28;20085;-78
2021/05/27 02:39:42;;;;;;;11.07;5.03;;;10.10;93.70;;;;;;5092482;28;20310;-77
2021/05/27 02:42:12;;;;;;;12.77;4.65;;;10.10;93.80;;;;;;5085973;28;20044;-78
2021/05/27 02:44:40;;;;;;;9.25;4.13;;;10.10;93.80;;;;;;5074963;28;20428;-78
2021/05/27 02:47:07;;;;;;;7.88;4.15;;;10.10;93.80;;;;;;5092364;28;20040;-78
2021/05/27 02:49:35;;;;;;;10.15;4.60;;;10.10;93.70;;;;;;5095471;28;20043;-77
2021/05/27 02:52:02;;;;;;;10.98;5.10;;;10.20;93.70;;;;;;5095771;28;20040;-77
2021/05/27 02:54:30;;;;;;;8.48;4.35;;;10.10;93.70;;;;;;5078665;28;20048;-77
2021/05/27 02:56:59;;;;;;;8.20;4.25;;;10.20;93.80;;;;;;5095529;28;20039;-78
2021/05/27 02:59:31;;;;;;;10.55;4.78;;;10.10;93.80;;;;;;5072232;28;20047;-79
2021/05/27 03:02:00;;;;;;;7.68;4.50;;;10.10;93.80;;;;;;5045594;28;20035;-77
2021/05/27 03:04:29;;;;;;;8.75;4.72;;;10.10;93.80;;;;;;5095366;28;20507;-77
2021/05/27 03:06:58;;;;;;;12.77;4.72;;;10.10;93.80;;;;;;5076891;28;20040;-77
2021/05/27 03:09:27;;;;;;;9.55;4.55;;;10.10;93.80;;;;;;5063267;28;20039;-77
2021/05/27 03:11:54;;;;;;;11.02;5.10;;;10.10;93.80;;;;;;5093234;28;20152;-78
2021/05/27 03:14:22;;;;;;;9.65;4.65;;;10.10;93.80;;;;;;5075597;28;20131;-78
2021/05/27 03:16:54;;;;;;;8.77;5.55;;;10.10;93.90;;;;;;5104648;28;20061;-78
2021/05/27 03:19:23;;;;;;;9.10;4.57;;;10.10;93.90;;;;;;5078937;28;20036;-78
2021/05/27 03:21:50;;;;;;;11.38;5.32;;;10.10;93.90;;;;;;5078559;28;20044;-78
2021/05/27 03:24:18;;;;;;;19.30;4.95;;;10.10;93.90;;;;;;5068419;28;20032;-78
2021/05/27 03:26:45;;;;;;;11.98;5.70;;;10.10;93.90;;;;;;5104076;28;20579;-77
2021/05/27 03:29:13;;;;;;;9.50;5.07;;;10.10;93.90;;;;;;5078677;28;20093;-78
2021/05/27 03:31:41;;;;;;;9.98;4.82;;;10.10;94.00;;;;;;5095764;28;20044;-78
2021/05/27 03:34:08;;;;;;;9.82;5.55;;;10.00;93.90;;;;;;5058667;28;20044;-77
2021/05/27 03:36:36;;;;;;;12.23;6.18;;;10.00;94.00;;;;;;5075144;28;20032;-77
2021/05/27 03:39:06;;;;;;;11.82;6.05;;;10.00;94.00;;;;;;5104601;28;20044;-78
2021/05/27 03:41:33;;;;;;;13.40;6.57;;;10.00;94.00;;;;;;5073153;28;20097;-78
2021/05/27 03:44:05;;;;;;;11.27;5.15;;;10.00;94.30;;;;;;5085798;28;20035;-78
2021/05/27 03:46:35;;;;;;;10.30;4.53;;;10.00;94.10;;;;;;5078118;28;20063;-78
2021/05/27 03:49:03;;;;;;;10.45;5.03;;;10.00;94.00;;;;;;5067729;28;20048;-78
2021/05/27 03:51:30;;;;;;;8.40;4.90;;;10.00;94.00;;;;;;5107778;28;20585;-79
2021/05/27 03:53:57;;;;;;;12.57;5.07;;;10.10;94.10;;;;;;5061490;28;20050;-79
2021/05/27 03:56:27;;;;;;;8.82;4.40;;;10.00;94.00;;;;;;5075251;28;20047;-79
2021/05/27 04:01:55;;;;;;;7.43;4.07;;;10.10;94.10;;;;;;5075812;28;20040;-79
2021/05/27 04:07:20;;;;;;;9.13;4.32;;;10.00;94.10;;;;;;5081015;28;20487;-79
2021/05/27 04:09:47;;;;;;;13.85;5.60;;;10.00;94.10;;;;;;5095391;28;20039;-79
2021/05/27 04:17:45;;;;;;;9.85;5.53;;;10.00;94.10;;;;;;5116743;28;20543;-78
2021/05/27 04:20:12;;;;;;;9.32;5.05;;;10.00;94.10;;;;;;5082043;28;20100;-78
2021/05/27 04:22:44;;;;;;;9.25;4.75;;;10.00;94.20;;;;;;5078465;28;20048;-78
2021/05/27 04:25:12;;;;;;;8.65;4.75;;;10.00;94.20;;;;;;5094428;28;20680;-78
2021/05/27 04:27:40;;;;;;;11.68;5.25;;;10.00;94.20;;;;;;5098493;28;20051;-77
2021/05/27 04:30:15;;;;;;;8.77;4.25;;;10.00;94.20;;;;;;5081593;28;20502;-78
2021/05/27 04:32:59;;;;;;;8.80;4.80;;;10.00;94.20;;;;;;5095291;28;20055;-78
2021/05/27 04:35:31;;;;;;;7.45;4.15;;;10.10;94.30;;;;;;5090141;28;20118;-78
2021/05/27 04:38:08;;;;;;;12.25;5.18;;;10.00;94.20;;;;;;5077292;28;20139;-78
2021/05/27 04:40:38;;;;;;;8.15;4.53;;;10.00;94.20;;;;;;5095760;28;20119;-77
2021/05/27 04:43:06;;;;;;;10.10;4.82;;;10.00;94.20;;;;;;5094263;28;20059;-77
2021/05/27 04:45:33;;;;;;;12.05;4.72;;;10.00;94.30;;;;;;5095333;28;20047;-78
2021/05/27 04:48:04;;;;;;;7.78;4.20;;;10.10;94.30;;;;;;5061174;28;20066;-77
2021/05/27 04:50:32;;;;;;;8.45;4.35;;;10.00;94.20;;;;;;5078349;28;20042;-78
2021/05/27 04:52:59;;;;;;;7.50;3.88;;;10.10;94.20;;;;;;5077314;28;20067;-77
2021/05/27 04:55:26;;;;;;;6.45;2.92;;;10.10;94.20;;;;;;5061144;28;20044;-78
2021/05/27 04:57:54;;;;;;;8.40;3.80;;;10.10;94.20;;;;;;5077807;28;20451;-78
2021/05/27 05:00:23;;;;;;;6.70;4.03;;;10.10;94.20;;;;;;5095677;28;20048;-78
2021/05/27 05:02:55;;;;;;;9.20;4.30;;;10.10;94.20;;;;;;5094674;28;20063;-77
2021/05/27 05:05:22;;;;;;;7.50;3.42;;;10.10;94.20;;;;;;5094163;28;20044;-78
2021/05/27 05:07:50;;;;;;;7.18;3.80;;;10.20;94.20;;;;;;5078025;28;20040;-77
2021/05/27 05:10:19;;;;;;;9.82;4.82;;;10.10;94.20;;;;;;5093956;28;20399;-78
2021/05/27 05:12:47;;;;;;;8.80;3.08;;;10.20;94.20;;;;;;5095526;28;20110;-77
2021/05/27 05:15:18;;;;;;;7.22;3.58;;;10.20;94.20;;;;;;5050597;28;20098;-78
2021/05/27 05:17:54;;;;;;;8.02;3.72;;;10.20;94.20;;;;;;5083560;28;20036;-78
2021/05/27 05:20:24;;;;;;;7.13;3.45;;;10.20;94.20;;;;;;5095357;28;20066;-77
2021/05/27 05:22:51;;;;;;;7.93;4.40;;;10.20;94.20;;;;;;5094220;28;20483;-77
2021/05/27 05:25:19;;;;;;;7.75;3.50;;;10.20;94.20;;;;;;5094230;28;20032;-78
2021/05/27 05:27:46;;;;;;;8.77;3.50;;;10.20;94.20;;;;;;5077749;28;20064;-78
2021/05/27 05:30:15;;;;;;;7.57;3.40;;;10.20;94.20;;;;;;5094124;28;20052;-78
2021/05/27 05:32:43;;;;;;;7.28;3.67;;;10.20;94.20;;;;;;5075264;28;20040;-77
2021/05/27 05:35:13;;;;;;;8.00;4.25;;;10.20;94.20;;;;;;5087287;28;20106;-79
2021/05/27 05:37:41;;;;;;;10.40;4.22;;;10.20;94.20;;;;;;5094691;28;20398;-78
2021/05/27 05:40:11;;;;;;;8.65;3.78;;;10.20;94.20;;;;;;5102391;28;20047;-77
2021/05/27 05:42:43;;;;;;;11.13;4.32;;;10.20;94.20;;;;;;5080983;28;20399;-77
2021/05/27 05:45:13;;;;;;;10.27;3.95;;;10.20;94.30;;;;;;5085911;28;20036;-78
2021/05/27 05:47:40;;;;;;;9.52;3.97;;;10.20;94.30;;;;;;5097448;28;20040;-78
2021/05/27 05:50:08;;;;;;;8.43;4.00;;;10.20;94.20;;;;;;5079915;28;20035;-78
2021/05/27 05:52:36;;;;;;;6.95;3.63;;;10.20;94.30;;;;;;5114684;28;20055;-78
2021/05/27 05:55:04;;;;;;;9.68;3.88;;;10.20;94.30;;;;;;5077422;28;20540;-78
2021/05/27 05:57:32;;;;;;;6.70;3.40;;;10.20;94.30;;;;;;5095175;28;20503;-78
2021/05/27 06:00:00;;;;;;;6.93;3.30;;;10.30;94.30;;;;;;5079771;28;20040;-78
2021/05/27 06:02:27;;;;;;;9.88;4.00;;;10.30;94.30;;;;;;5092299;28;20067;-78
2021/05/27 06:04:54;;;;;;;6.43;3.30;;;10.30;94.30;;;;;;5078659;28;20548;-78
2021/05/27 06:07:36;;;;;;;9.38;3.97;;;10.30;94.30;;;;;;5091156;28;20040;-78
2021/05/27 06:10:04;;;;;;;6.65;3.33;;;10.30;94.30;;;;;;5079410;28;20047;-77
2021/05/27 06:12:31;;;;;;;8.35;3.80;;;10.30;94.30;;;;;;5092869;28;20051;-77
2021/05/27 06:15:02;;;;;;;6.88;3.25;;;10.30;94.30;;;;;;5080076;28;20413;-78
2021/05/27 06:17:30;;;;;;;8.60;4.20;;;10.30;94.30;;;;;;5061303;28;20032;-78
2021/05/27 06:19:57;;;;;;;8.20;4.25;;;10.30;94.30;;;;;;5086834;28;20052;-78
2021/05/27 06:22:34;;;;;;;9.88;4.70;;;10.30;94.30;;;;;;5088425;28;20097;-78
2021/05/27 06:25:01;;;;;;;11.20;4.97;;;10.30;94.30;;;;;;5106363;28;20453;-78
2021/05/27 06:27:28;;;;;;;11.07;4.30;;;10.20;94.30;;;;;;5070630;28;20483;-78
2021/05/27 06:29:55;;;;;;;6.53;3.05;;;10.20;94.30;;;;;;5095795;28;20043;-78
2021/05/27 06:32:22;;;;;;;10.48;4.20;;;10.20;94.30;;;;;;5070434;28;20051;-78
2021/05/27 06:34:52;;;;;;;11.25;4.82;;;10.30;94.30;;;;;;5108325;28;20047;-78
2021/05/27 06:37:19;;;;;;;9.82;4.43;;;10.30;94.30;;;;;;5095573;28;20054;-77
2021/05/27 06:39:46;;;;;;;10.80;4.68;;;10.20;94.30;;;;;;5063871;28;20048;-77
2021/05/27 06:42:13;;;;;;;11.73;4.97;;;10.20;94.30;;;;;;5083706;28;20104;-78
2021/05/27 06:44:46;;;;;;;8.00;4.57;;;10.20;94.30;;;;;;5060685;28;20053;-78
2021/05/27 06:47:13;;;;;;;9.40;4.60;;;10.20;94.40;;;;;;5100558;28;20549;-78
2021/05/27 06:49:40;;;;;;;11.18;4.05;;;10.20;94.40;;;;;;5094582;28;20044;-78
2021/05/27 06:52:07;;;;;;;8.93;4.10;;;10.30;94.40;;;;;;5107542;28;20036;-78
2021/05/27 06:54:35;;;;;;;9.23;4.10;;;10.30;94.40;;;;;;5102102;28;20819;-78
2021/05/27 06:57:02;;;;;;;10.82;3.70;;;10.30;94.40;;;;;;5108065;28;20097;-80
2021/05/27 06:59:29;;;;;;;10.15;4.18;;;10.30;94.40;;;;;;5095627;28;20495;-78
2021/05/27 07:01:56;;;;;;;9.43;3.90;;;10.30;94.30;;;;;;5062653;28;20039;-79
2021/05/27 07:04:23;;;;;;;10.70;3.97;;;10.30;94.30;;;;;;5058992;28;20040;-78
2021/05/27 07:06:51;;;;;;;8.75;3.75;;;10.30;94.30;;;;;;5091045;28;20044;-78
2021/05/27 07:09:20;;;;;;;12.20;4.47;;;10.30;94.40;;;;;;5076935;28;20042;-77
2021/05/27 07:11:47;;;;;;;10.38;4.10;;;10.30;94.40;;;;;;5075094;28;20079;-80
2021/05/27 07:14:14;;;;;;;8.80;3.72;;;10.30;94.30;;;;;;5078793;28;20069;-79
2021/05/27 07:16:41;;;;;;;11.02;4.53;;;10.40;94.40;;;;;;5078432;28;20035;-79
2021/05/27 07:19:08;;;;;;;10.52;4.35;;;10.40;94.30;;;;;;5093819;28;20436;-79
2021/05/27 07:21:35;;;;;;;6.18;2.85;;;10.40;94.40;;;;;;5078769;28;20088;-80
2021/05/27 07:24:03;;;;;;;9.57;4.07;;;10.50;94.40;;;;;;5095532;28;20036;-79
2021/05/27 07:26:30;;;;;;;11.40;4.00;;;10.50;94.30;;;;;;5085024;28;20119;-79
2021/05/27 07:28:57;;;;;;;9.82;3.53;;;10.50;94.60;;;;;;5038473;28;20044;-78
2021/05/27 07:31:24;;;;;;;6.43;3.00;;;10.50;94.30;;;;;;5094970;28;20043;-76
2021/05/27 07:33:51;;;;;;;11.07;3.28;;;10.50;94.30;;;;;;5098235;28;20048;-79
2021/05/27 07:36:18;;;;;;;9.40;3.92;;;10.50;94.20;;;;;;5093219;28;20093;-79
2021/05/27 07:38:49;;;;;;;11.57;3.83;;;10.40;94.20;;;;;;5095884;28;20039;-79
2021/05/27 07:41:16;;;;;;;6.57;2.45;;;10.40;94.30;;;;;;5078191;28;20093;-79
2021/05/27 07:43:43;;;;;;;6.00;3.00;;;10.40;94.30;;;;;;5075098;28;20461;-79
2021/05/27 07:46:10;;;;;;;6.65;2.72;;;10.50;94.30;;;;;;5064139;28;20055;-78
2021/05/27 07:48:37;;;;;;;8.43;3.67;;;10.50;94.30;;;;;;5097857;28;20047;-79
2021/05/27 07:51:05;;;;;;;8.50;3.00;;;10.50;94.30;;;;;;5082623;28;20039;-78
2021/05/27 07:53:32;;;;;;;7.95;3.67;;;10.40;94.30;;;;;;5095686;28;20040;-79
2021/05/27 07:55:59;;;;;;;8.55;3.35;;;10.40;94.30;;;;;;5099029;28;20070;-79
2021/05/27 07:58:26;;;;;;;6.25;2.40;;;10.40;94.30;;;;;;5082069;28;20444;-78
2021/05/27 08:00:53;;;;;;;10.45;3.97;;;10.40;94.30;;;;;;5095733;28;20368;-78
2021/05/27 08:03:20;;;;;;;11.25;3.60;;;10.40;94.30;;;;;;5111288;28;20474;-78
2021/05/27 08:05:47;;;;;;;7.07;3.00;;;10.40;94.30;;;;;;5105328;28;20036;-79
2021/05/27 08:08:15;;;;;;;7.50;2.70;;;10.40;94.30;;;;;;5082613;28;20134;-79
2021/05/27 08:10:42;;;;;;;7.10;3.05;;;10.50;94.30;;;;;;5065876;28;20047;-79
2021/05/27 08:13:13;;;;;;;6.22;2.80;;;10.50;94.30;;;;;;5078898;28;20051;-80
2021/05/27 08:15:41;;;;;;;8.80;3.92;;;10.50;94.30;;;;;;5095242;28;20465;-80
2021/05/27 08:18:10;;;;;;;7.78;3.58;;;10.50;94.20;;;;;;5083299;28;20040;-80
2021/05/27 08:20:38;;;;;;;7.00;3.60;;;10.50;94.20;;;;;;5082675;28;20513;-80
2021/05/27 08:23:13;;;;;;;8.02;3.88;;;10.40;94.20;;;;;;5080438;28;20521;-80
2021/05/27 08:25:42;;;;;;;7.93;3.40;;;10.40;94.20;;;;;;5067640;28;20495;-80
2021/05/27 08:28:20;;;;;;;8.63;4.00;;;10.40;94.30;;;;;;5084303;28;20027;-81
2021/05/27 08:30:47;;;;;;;8.82;2.95;;;10.40;94.30;;;;;;5113723;28;20131;-81
2021/05/27 08:33:14;;;;;;;6.22;3.08;;;10.50;94.40;;;;;;5087997;28;20091;-80
2021/05/27 08:35:41;;;;;;;6.95;3.22;;;10.60;94.30;;;;;;5077484;28;20051;-82
2021/05/27 08:38:11;;;;;;;7.70;2.35;;;10.70;94.30;;;;;;5082205;28;20058;-81
2021/05/27 08:40:39;;;;;;;12.38;4.15;;;10.80;94.30;;;;;;5048775;28;20105;-80
2021/05/27 08:43:06;;;;;;;9.90;3.88;;;10.80;94.10;;;;;;5082716;28;20059;-80
2021/05/27 08:45:36;;;;;;;7.78;3.63;;;10.80;94.10;;;;;;5083331;28;20058;-80
2021/05/27 08:48:10;;;;;;;10.52;3.55;;;10.80;94.20;;;;;;5082133;28;20044;-80
2021/05/27 08:50:44;;;;;;;8.73;3.40;;;10.90;94.20;;;;;;5098567;28;20097;-80
2021/05/27 08:53:13;;;;;;;10.13;3.50;;;11.00;94.20;;;;;;5098290;28;20039;-81
2021/05/27 08:55:40;;;;;;;9.90;3.83;;;11.10;94.00;;;;;;5114972;28;20043;-80
2021/05/27 08:58:10;;;;;;;11.55;3.63;;;11.20;94.20;;;;;;5095806;28;20119;-80
2021/05/27 09:00:37;;;;;;;10.65;3.72;;;11.30;94.00;;;;;;5096133;28;20043;-81
2021/05/27 09:03:06;;;;;;;10.45;3.33;;;11.30;94.00;;;;;;5076783;28;20048;-80
2021/05/27 09:05:36;;;;;;;10.85;4.10;;;11.30;94.00;;;;;;5070804;28;20040;-78
2021/05/27 09:08:06;;;;;;;11.48;3.95;;;11.40;93.80;;;;;;5117201;28;20040;-80
2021/05/27 09:10:45;;;;;;;12.13;4.43;;;11.30;93.70;;;;;;5099700;28;20048;-82
2021/05/27 09:13:18;;;;;;;9.75;4.28;;;11.20;93.70;;;;;;5077007;28;20763;-81
2021/05/27 09:15:52;;;;;;;8.52;4.60;;;11.20;93.90;;;;;;5080863;28;20067;-82
2021/05/27 09:18:31;;;;;;;12.02;4.00;;;11.20;93.80;;;;;;5064428;28;20039;-82
2021/05/27 09:21:05;;;;;;;12.40;3.72;;;11.10;93.80;;;;;;5094523;28;20028;-79
2021/05/27 09:23:35;;;;;;;6.67;3.43;;;11.10;93.90;;;;;;5064709;28;20043;-79
2021/05/27 09:26:12;;;;;;;9.85;3.50;;;11.00;94.00;;;;;;5067723;28;20032;-79
2021/05/27 09:28:39;;;;;;;9.95;3.72;;;11.00;94.00;;;;;;5104536;28;20046;-80
2021/05/27 09:31:12;;;;;;;7.72;4.40;;;11.00;94.00;;;;;;5078509;28;20074;-79
2021/05/27 09:33:45;;;;;;;10.27;3.97;;;11.00;94.00;;;;;;5115828;28;20047;-78
2021/05/27 09:36:13;;;;;;;9.85;4.32;;;11.10;94.00;;;;;;5097482;28;20048;-79
2021/05/27 09:38:53;;;;;;;8.00;3.33;;;11.10;93.90;;;;;;5096982;28;20052;-79
2021/05/27 09:41:27;;;;;;;11.32;4.70;;;11.10;93.90;;;;;;5077678;28;20040;-79
2021/05/27 09:44:14;;;;;;;11.38;4.25;;;11.00;94.00;;;;;;5095088;28;20066;-78
2021/05/27 09:46:51;;;;;;;9.60;4.32;;;11.00;94.00;;;;;;5114077;28;20039;-78
2021/05/27 09:49:28;;;;;;;12.57;4.95;;;11.00;93.90;;;;;;5090966;28;20138;-78
2021/05/27 09:51:57;;;;;;;9.95;5.15;;;10.90;93.90;;;;;;5047168;28;20039;-77
2021/05/27 09:54:25;;;;;;;9.85;5.10;;;11.00;94.00;;;;;;5077017;28;20036;-78
2021/05/27 09:56:52;;;;;;;13.48;4.30;;;11.00;94.00;;;;;;5080839;28;20059;-77
2021/05/27 09:59:21;;;;;;;8.25;4.05;;;11.10;94.00;;;;;;5079999;28;20040;-77
2021/05/27 10:02:14;;;;;;;10.30;4.37;;;11.20;94.00;;;;;;5092466;28;20492;-78
2021/05/27 10:05:04;;;;;;;10.93;4.25;;;11.30;93.90;;;;;;5070978;28;20048;-78
2021/05/27 10:07:38;;;;;;;13.85;5.45;;;11.30;93.70;;;;;;5064934;28;20090;-77
2021/05/27 10:10:27;;;;;;;13.88;5.82;;;11.30;93.70;;;;;;5089341;28;20032;-77
2021/05/27 10:12:55;;;;;;;15.05;5.97;;;11.30;93.70;;;;;;5051994;28;20048;-77
2021/05/27 10:15:24;;;;;;;13.65;5.22;;;11.30;93.60;;;;;;5075663;28;20044;-77
2021/05/27 10:17:57;;;;;;;13.95;5.95;;;11.30;93.70;;;;;;5086847;28;20058;-77
2021/05/27 10:20:25;;;;;;;;;;;11.30;93.60;;;;;;5053878;28;20040;-77
2021/05/27 10:22:56;;;;;;;15.98;7.68;;;11.20;93.60;;;;;;5075984;28;19969;-78
2021/05/27 10:25:25;;;;;;;14.93;6.47;;;11.20;93.70;;;;;;5085220;28;20041;-77
2021/05/27 10:27:54;;;;;;;15.20;6.75;;;11.20;93.60;;;;;;5057036;28;20123;-77
2021/05/27 10:30:22;;;;;;;12.55;6.57;;;11.30;93.70;;;;;;5086110;28;20036;-76
2021/05/27 10:32:55;;;;;;;16.75;7.15;;;11.20;93.60;;;;;;5089558;28;20032;-78
2021/05/27 10:35:22;;;;;;;;;;;11.20;93.50;;;;;;5068758;28;20039;-78
2021/05/27 10:37:51;;;;;;;13.40;6.63;;;11.20;93.70;;;;;;5093689;28;19945;-77
2021/05/27 10:40:21;;;;;;;8.63;4.80;;;11.30;93.70;;;;;;5071161;28;20061;-77
2021/05/27 10:43:08;;;;;;;7.68;4.07;;;11.40;93.70;;;;;;5089755;28;20501;-77
2021/05/27 10:45:59;;;;;;;9.18;4.57;;;11.50;93.60;;;;;;5106824;28;20047;-79
2021/05/27 10:48:28;;;;;;;11.70;4.45;;;11.60;93.60;;;;;;5109265;28;20491;-78
2021/05/27 10:53:42;;;;;;;10.55;4.70;;;11.60;93.60;;;;;;5083864;28;20063;-77
2021/05/27 10:56:19;;;;;;;10.57;5.35;;;11.60;93.50;;;;;;5090620;28;20100;-79
2021/05/27 10:58:49;;;;;;;9.27;4.35;;;11.60;93.50;;;;;;5096774;28;20047;-79
2021/05/27 11:01:32;;;;;;;13.00;5.50;;;11.50;93.60;;;;;;5093337;28;20036;-78
2021/05/27 11:04:07;;;;;;;10.00;5.32;;;11.50;93.60;;;;;;5107933;28;20034;-78
2021/05/27 11:06:38;;;;;;;13.07;5.78;;;11.50;93.70;;;;;;5094222;28;20039;-77
2021/05/27 11:09:13;;;;;;;9.27;5.25;;;11.40;93.70;;;;;;5108227;28;20097;-78
2021/05/27 11:11:50;;;;;;;8.13;4.75;;;11.40;93.80;;;;;;5096327;28;20112;-79
2021/05/27 11:14:18;;;;;;;13.77;6.40;;;11.50;93.70;;;;;;5095385;28;20047;-79
2021/05/27 11:17:19;;;;;;;13.13;6.43;;;11.40;93.70;;;;;;5099053;28;20484;-78
2021/05/27 11:25:15;;;;;;;11.48;5.65;;;11.40;93.80;;;;;;5088158;28;20036;-77
2021/05/27 11:27:55;;;;;;;10.98;6.07;;;11.40;93.80;;;;;;5108226;28;20047;-79
2021/05/27 11:30:37;;;;;;;15.63;6.88;;;11.40;93.80;;;;;;5096659;28;20047;-78
2021/05/27 11:33:29;;;;;;;11.63;5.47;;;11.40;93.80;;;;;;5105922;28;20035;-80
2021/05/27 11:36:01;;;;;;;11.23;6.25;;;11.40;93.90;;;;;;5083193;28;20176;-80
2021/05/27 11:38:39;;;;;;;12.88;5.85;;;11.50;93.90;;;;;;5091945;28;20040;-80
2021/05/27 11:41:17;;;;;;;11.60;5.53;;;11.60;93.90;;;;;;5096182;28;20055;-79
2021/05/27 11:43:53;;;;;;;9.20;5.40;;;11.60;93.90;;;;;;5099856;28;20052;-78
2021/05/27 11:46:29;;;;;;;10.00;5.10;;;11.60;93.80;;;;;;5095880;28;20109;-78
2021/05/27 11:48:58;;;;;;;11.05;5.80;;;11.70;93.90;;;;;;5084202;28;20039;-78
2021/05/27 11:51:34;;;;;;;8.88;4.63;;;11.70;93.80;;;;;;5090178;28;20070;-78
2021/05/27 11:54:08;;;;;;;11.02;5.40;;;12.00;93.90;;;;;;5081452;28;20063;-85
2021/05/27 11:56:44;;;;;;;9.65;4.22;;;12.20;93.70;;;;;;5117171;28;20040;-79
2021/05/27 11:59:19;;;;;;;8.30;3.95;;;12.40;93.60;;;;;;5099115;28;20054;-80
2021/05/27 12:02:03;;;;;;;6.22;4.03;;;12.50;93.50;;;;;;5117176;28;20032;-83
2021/05/27 12:04:31;;;;;;;7.85;4.00;;;12.50;93.40;;;;;;5088097;28;20052;-79
2021/05/27 12:07:12;;;;;;;6.15;3.15;;;12.60;93.40;;;;;;5109203;28;20105;-76
2021/05/27 12:09:42;;;;;;;7.93;4.35;;;12.60;93.40;;;;;;5093658;28;20054;-77
2021/05/27 12:12:16;;;;;;;9.95;4.80;;;12.60;93.20;;;;;;5098948;28;20032;-76
2021/05/27 12:14:48;;;;;;;10.95;4.82;;;12.50;93.20;;;;;;5116714;28;20449;-75
2021/05/27 12:17:21;;;;;;;;;;;12.50;93.30;;;;;;5094900;28;20446;-76
2021/05/27 12:19:50;;;;;;;7.43;3.28;;;12.40;93.30;;;;;;5097048;28;19920;-77
2021/05/27 12:22:19;;;;;;;8.00;4.28;;;12.40;93.40;;;;;;5093252;28;20126;-77
2021/05/27 12:24:47;;;;;;;9.63;3.95;;;12.30;93.30;;;;;;5092306;28;20585;-74
2021/05/27 12:27:14;;;;;;;12.20;4.82;;;12.30;93.30;;;;;;5107035;28;20038;-75
2021/05/27 12:29:41;;;;;;;9.38;4.10;;;12.20;93.40;;;;;;5077237;28;20123;-74
2021/05/27 12:32:08;;;;;;;5.72;3.10;;;12.10;93.40;;;;;;5087220;28;20036;-74
2021/05/27 12:34:39;;;;;;;7.35;3.75;;;12.10;93.60;;;;;;5109859;28;20051;-74
2021/05/27 12:37:06;;;;;;;6.00;3.22;;;12.30;93.70;;;;;;5087576;28;20044;-74
2021/05/27 12:39:37;;;;;;;8.15;3.60;;;12.50;93.60;;;;;;5080594;28;20044;-74
2021/05/27 12:42:07;;;;;;;6.82;3.05;;;12.80;93.50;;;;;;5093601;28;20036;-79
2021/05/27 12:44:44;;;;;;;6.57;3.55;;;13.10;93.50;;;;;;5105838;28;20092;-81
2021/05/27 12:47:22;;;;;;;7.55;3.33;;;13.40;92.90;;;;;;5092101;28;20511;-77
2021/05/27 12:49:50;;;;;;;7.75;3.70;;;13.40;92.70;;;;;;5105786;28;20435;-77
2021/05/27 12:52:37;;;;;;;6.72;3.92;;;13.40;92.70;;;;;;5089649;28;20040;-77
2021/05/27 12:55:07;;;;;;;7.13;3.05;;;13.30;92.50;;;;;;5110176;28;20044;-78
2021/05/27 12:57:52;;;;;;;6.60;2.72;;;13.20;92.60;;;;;;5111249;28;20376;-79
2021/05/27 13:00:21;;;;;;;5.22;2.38;;;13.10;92.70;;;;;;5088496;28;20036;-78
2021/05/27 13:03:07;;;;;;;6.78;2.95;;;13.10;92.90;;;;;;5079111;28;20040;-77
2021/05/27 13:05:34;;;;;;;6.28;3.00;;;13.00;92.60;;;;;;5107489;28;20048;-77
2021/05/27 13:08:03;;;;;;;5.47;2.40;;;12.90;92.60;;;;;;5077614;28;20044;-78
2021/05/27 13:10:35;;;;;;;6.68;2.45;;;12.90;92.80;;;;;;5114505;28;20070;-77
2021/05/27 13:13:04;;;;;;;7.03;2.67;;;12.80;92.50;;;;;;5082765;28;20564;-77
2021/05/27 13:15:46;;;;;;;4.95;1.60;;;12.80;92.60;;;;;;5097285;28;20101;-77
2021/05/27 13:18:16;;;;;;;2.90;1.60;;;12.90;92.80;;;;;;5096473;28;20050;-77
2021/05/27 13:21:00;;;;;;;4.20;1.80;;;13.00;92.80;;;;;;5090892;28;20281;-78